sensor_id;sensor_type;location;lat;lon;timestamp;temperature;humidity
678;DHT22;321;48.814;9.132;2023-07-20T00:00:52;20.70;91.00
678;DHT22;321;48.814;9.132;2023-07-20T00:03:19;20.70;91.00
678;DHT22;321;48.814;9.132;2023-07-20T00:05:49;20.50;90.30
678;DHT22;321;48.814;9.132;2023-07-20T00:08:15;20.70;90.30
678;DHT22;321;48.814;9.132;2023-07-20T00:10:41;20.50;88.30
678;DHT22;321;48.814;9.132;2023-07-20T00:13:07;20.50;89.30
678;DHT22;321;48.814;9.132;2023-07-20T00:15:33;20.30;88.50
678;DHT22;321;48.814;9.132;2023-07-20T00:17:58;20.30;88.20
678;DHT22;321;48.814;9.132;2023-07-20T00:20:24;21.20;87.40
678;DHT22;321;48.814;9.132;2023-07-20T00:22:51;20.20;85.90
678;DHT22;321;48.814;9.132;2023-07-20T00:25:17;20.10;86.20
678;DHT22;321;48.814;9.132;2023-07-20T00:27:42;20.20;85.70
678;DHT22;321;48.814;9.132;2023-07-20T00:30:08;20.20;84.10
678;DHT22;321;48.814;9.132;2023-07-20T00:32:34;20.20;84.80
678;DHT22;321;48.814;9.132;2023-07-20T00:35:00;20.00;84.40
678;DHT22;321;48.814;9.132;2023-07-20T00:37:25;20.20;83.70
678;DHT22;321;48.814;9.132;2023-07-20T00:39:51;20.20;96.60
678;DHT22;321;48.814;9.132;2023-07-20T00:42:17;20.20;94.90
678;DHT22;321;48.814;9.132;2023-07-20T00:47:09;20.10;84.90
678;DHT22;321;48.814;9.132;2023-07-20T00:52:01;19.90;86.20
678;DHT22;321;48.814;9.132;2023-07-20T00:59:21;19.90;99.90
678;DHT22;321;48.814;9.132;2023-07-20T01:04:13;19.80;85.60
678;DHT22;321;48.814;9.132;2023-07-20T01:09:19;19.70;99.80
678;DHT22;321;48.814;9.132;2023-07-20T01:12:08;19.50;97.70
678;DHT22;321;48.814;9.132;2023-07-20T01:14:37;19.60;97.20
678;DHT22;321;48.814;9.132;2023-07-20T01:25:25;19.30;89.20
678;DHT22;321;48.814;9.132;2023-07-20T01:33:20;19.20;99.90
678;DHT22;321;48.814;9.132;2023-07-20T01:35:57;19.10;92.20
678;DHT22;321;48.814;9.132;2023-07-20T01:50:35;19.10;99.90
678;DHT22;321;48.814;9.132;2023-07-20T01:53:01;19.10;99.90
678;DHT22;321;48.814;9.132;2023-07-20T01:55:27;18.90;99.90
678;DHT22;321;48.814;9.132;2023-07-20T02:22:23;18.40;99.90
678;DHT22;321;48.814;9.132;2023-07-20T04:02:20;16.60;99.90
678;DHT22;321;48.814;9.132;2023-07-20T04:09:39;17.20;99.90
678;DHT22;321;48.814;9.132;2023-07-20T04:14:31;17.20;99.90
678;DHT22;321;48.814;9.132;2023-07-20T04:16:56;17.30;99.90
678;DHT22;321;48.814;9.132;2023-07-20T04:29:06;18.10;99.90
678;DHT22;321;48.814;9.132;2023-07-20T04:31:31;17.90;99.90
678;DHT22;321;48.814;9.132;2023-07-20T04:46:12;18.30;99.90
678;DHT22;321;48.814;9.132;2023-07-20T05:00:49;18.80;99.90
678;DHT22;321;48.814;9.132;2023-07-20T05:12:59;20.10;99.90
678;DHT22;321;48.814;9.132;2023-07-20T05:27:37;22.30;99.90
678;DHT22;321;48.814;9.132;2023-07-20T06:35:57;34.30;68.30
678;DHT22;321;48.814;9.132;2023-07-20T08:30:46;32.00;74.40
678;DHT22;321;48.814;9.132;2023-07-20T08:45:34;37.50;63.20
678;DHT22;321;48.814;9.132;2023-07-20T08:48:01;37.80;61.40
678;DHT22;321;48.814;9.132;2023-07-20T08:50:30;37.90;58.40
678;DHT22;321;48.814;9.132;2023-07-20T09:10:21;35.50;61.00
678;DHT22;321;48.814;9.132;2023-07-20T09:25:06;33.40;67.50
678;DHT22;321;48.814;9.132;2023-07-20T09:30:04;32.80;72.40
678;DHT22;321;48.814;9.132;2023-07-20T09:34:55;33.70;52.80
678;DHT22;321;48.814;9.132;2023-07-20T09:37:22;33.90;56.10
678;DHT22;321;48.814;9.132;2023-07-20T09:42:15;34.60;52.00
678;DHT22;321;48.814;9.132;2023-07-20T09:44:43;34.70;49.80
678;DHT22;321;48.814;9.132;2023-07-20T09:49:39;35.40;52.00
678;DHT22;321;48.814;9.132;2023-07-20T10:01:52;37.20;46.40
678;DHT22;321;48.814;9.132;2023-07-20T10:04:19;37.70;37.70
678;DHT22;321;48.814;9.132;2023-07-20T10:09:15;39.60;50.20
678;DHT22;321;48.814;9.132;2023-07-20T10:11:49;39.90;49.60
678;DHT22;321;48.814;9.132;2023-07-20T10:14:19;40.50;46.80
678;DHT22;321;48.814;9.132;2023-07-20T10:16:50;41.10;40.80
678;DHT22;321;48.814;9.132;2023-07-20T10:19:47;41.10;39.10
678;DHT22;321;48.814;9.132;2023-07-20T10:22:15;40.50;44.30
678;DHT22;321;48.814;9.132;2023-07-20T10:24:45;40.80;42.00
678;DHT22;321;48.814;9.132;2023-07-20T10:29:38;41.70;39.80
678;DHT22;321;48.814;9.132;2023-07-20T10:32:05;41.80;39.70
678;DHT22;321;48.814;9.132;2023-07-20T10:39:32;39.90;37.70
678;DHT22;321;48.814;9.132;2023-07-20T10:42:07;40.10;39.10
678;DHT22;321;48.814;9.132;2023-07-20T10:44:33;39.90;34.80
678;DHT22;321;48.814;9.132;2023-07-20T10:47:03;39.60;59.50
678;DHT22;321;48.814;9.132;2023-07-20T10:49:34;37.90;39.80
678;DHT22;321;48.814;9.132;2023-07-20T10:52:04;37.00;42.80
678;DHT22;321;48.814;9.132;2023-07-20T10:56:57;36.40;38.40
678;DHT22;321;48.814;9.132;2023-07-20T11:01:55;36.10;44.90
678;DHT22;321;48.814;9.132;2023-07-20T11:04:38;36.60;43.60
678;DHT22;321;48.814;9.132;2023-07-20T11:09:37;36.50;40.50
678;DHT22;321;48.814;9.132;2023-07-20T11:12:29;37.30;37.80
678;DHT22;321;48.814;9.132;2023-07-20T11:14:56;37.90;44.70
678;DHT22;321;48.814;9.132;2023-07-20T11:17:29;38.30;45.00
678;DHT22;321;48.814;9.132;2023-07-20T11:19:59;38.00;43.80
678;DHT22;321;48.814;9.132;2023-07-20T11:24:56;38.10;41.90
678;DHT22;321;48.814;9.132;2023-07-20T11:32:24;38.80;46.80
678;DHT22;321;48.814;9.132;2023-07-20T11:37:19;38.90;44.60
678;DHT22;321;48.814;9.132;2023-07-20T11:47:11;37.60;41.60
678;DHT22;321;48.814;9.132;2023-07-20T11:49:43;37.60;41.90
678;DHT22;321;48.814;9.132;2023-07-20T11:52:15;37.90;47.10
678;DHT22;321;48.814;9.132;2023-07-20T11:54:42;38.00;44.00
678;DHT22;321;48.814;9.132;2023-07-20T11:57:16;37.60;47.40
678;DHT22;321;48.814;9.132;2023-07-20T11:59:53;37.60;48.00
678;DHT22;321;48.814;9.132;2023-07-20T12:04:47;36.70;48.60
678;DHT22;321;48.814;9.132;2023-07-20T12:19:38;32.10;53.70
678;DHT22;321;48.814;9.132;2023-07-20T13:40:15;27.40;49.60
678;DHT22;321;48.814;9.132;2023-07-20T15:15:13;26.60;53.60
678;DHT22;321;48.814;9.132;2023-07-20T15:17:40;26.60;56.20
678;DHT22;321;48.814;9.132;2023-07-20T15:20:07;26.50;53.60
678;DHT22;321;48.814;9.132;2023-07-20T15:22:34;26.30;54.30
678;DHT22;321;48.814;9.132;2023-07-20T15:25:02;26.40;54.70
678;DHT22;321;48.814;9.132;2023-07-20T15:59:11;26.20;64.80
678;DHT22;321;48.814;9.132;2023-07-20T16:13:50;26.30;62.50
678;DHT22;321;48.814;9.132;2023-07-20T20:27:54;21.30;69.80
678;DHT22;321;48.814;9.132;2023-07-20T20:30:20;21.20;63.50
678;DHT22;321;48.814;9.132;2023-07-20T20:32:52;20.90;91.90
678;DHT22;321;48.814;9.132;2023-07-20T20:35:17;21.20;63.20
678;DHT22;321;48.814;9.132;2023-07-20T20:37:44;21.20;63.30
678;DHT22;321;48.814;9.132;2023-07-20T20:40:10;21.20;63.60
678;DHT22;321;48.814;9.132;2023-07-20T20:42:35;21.10;63.50
678;DHT22;321;48.814;9.132;2023-07-20T20:45:01;21.00;62.70
678;DHT22;321;48.814;9.132;2023-07-20T20:47:27;21.00;64.20
678;DHT22;321;48.814;9.132;2023-07-20T20:52:19;21.00;82.70
678;DHT22;321;48.814;9.132;2023-07-20T20:54:45;20.90;87.20
678;DHT22;321;48.814;9.132;2023-07-20T20:57:11;20.80;64.80
678;DHT22;321;48.814;9.132;2023-07-20T20:59:36;20.80;64.20
678;DHT22;321;48.814;9.132;2023-07-20T21:02:05;20.80;65.30
678;DHT22;321;48.814;9.132;2023-07-20T21:04:32;20.20;79.90
678;DHT22;321;48.814;9.132;2023-07-20T21:06:57;20.60;65.20
678;DHT22;321;48.814;9.132;2023-07-20T21:09:24;20.60;65.50
678;DHT22;321;48.814;9.132;2023-07-20T21:11:49;20.60;66.10
678;DHT22;321;48.814;9.132;2023-07-20T21:14:15;20.50;66.70
678;DHT22;321;48.814;9.132;2023-07-20T21:16:40;20.50;66.90
678;DHT22;321;48.814;9.132;2023-07-20T21:19:06;20.50;67.50
678;DHT22;321;48.814;9.132;2023-07-20T21:21:32;20.40;66.90
678;DHT22;321;48.814;9.132;2023-07-20T21:23:58;20.30;66.70
678;DHT22;321;48.814;9.132;2023-07-20T21:26:23;20.20;67.90
678;DHT22;321;48.814;9.132;2023-07-20T21:50:48;19.60;85.20
678;DHT22;321;48.814;9.132;2023-07-20T21:58:07;19.50;86.80
678;DHT22;321;48.814;9.132;2023-07-20T22:00:32;19.50;73.40
678;DHT22;321;48.814;9.132;2023-07-20T22:02:58;19.50;73.20
678;DHT22;321;48.814;9.132;2023-07-20T22:05:23;19.30;73.20
678;DHT22;321;48.814;9.132;2023-07-20T22:07:49;19.40;74.10
678;DHT22;321;48.814;9.132;2023-07-20T22:10:15;19.50;73.20
678;DHT22;321;48.814;9.132;2023-07-20T22:12:40;19.50;72.80
678;DHT22;321;48.814;9.132;2023-07-20T22:15:08;19.50;72.90
678;DHT22;321;48.814;9.132;2023-07-20T22:17:35;19.40;72.70
678;DHT22;321;48.814;9.132;2023-07-20T22:20:01;19.40;73.00
678;DHT22;321;48.814;9.132;2023-07-20T22:22:28;19.40;72.50
678;DHT22;321;48.814;9.132;2023-07-20T22:24:53;19.40;72.80
678;DHT22;321;48.814;9.132;2023-07-20T22:27:19;19.30;73.80
678;DHT22;321;48.814;9.132;2023-07-20T22:29:44;19.30;73.90
678;DHT22;321;48.814;9.132;2023-07-20T22:32:10;19.30;73.50
678;DHT22;321;48.814;9.132;2023-07-20T22:34:36;19.20;75.10
678;DHT22;321;48.814;9.132;2023-07-20T22:37:02;19.10;75.90
678;DHT22;321;48.814;9.132;2023-07-20T22:39:29;19.00;76.00
678;DHT22;321;48.814;9.132;2023-07-20T22:41:57;19.10;75.80
678;DHT22;321;48.814;9.132;2023-07-20T22:44:23;19.10;77.40
678;DHT22;321;48.814;9.132;2023-07-20T22:46:48;19.10;77.80
678;DHT22;321;48.814;9.132;2023-07-20T22:49:14;19.20;77.00
678;DHT22;321;48.814;9.132;2023-07-20T22:51:40;19.10;77.60
678;DHT22;321;48.814;9.132;2023-07-20T22:54:05;19.10;78.00
678;DHT22;321;48.814;9.132;2023-07-20T22:56:31;19.00;78.40
678;DHT22;321;48.814;9.132;2023-07-20T22:58:57;18.90;79.30
678;DHT22;321;48.814;9.132;2023-07-20T23:01:23;19.00;80.30
678;DHT22;321;48.814;9.132;2023-07-20T23:03:48;19.10;80.00
678;DHT22;321;48.814;9.132;2023-07-20T23:06:14;19.10;79.30
678;DHT22;321;48.814;9.132;2023-07-20T23:08:39;19.10;79.80
678;DHT22;321;48.814;9.132;2023-07-20T23:11:05;19.10;80.20
678;DHT22;321;48.814;9.132;2023-07-20T23:13:32;19.10;80.00
678;DHT22;321;48.814;9.132;2023-07-20T23:16:02;19.10;79.60
678;DHT22;321;48.814;9.132;2023-07-20T23:18:29;19.20;79.00
678;DHT22;321;48.814;9.132;2023-07-20T23:20:54;19.20;79.20
678;DHT22;321;48.814;9.132;2023-07-20T23:23:21;19.20;78.70
678;DHT22;321;48.814;9.132;2023-07-20T23:25:54;19.20;79.30
678;DHT22;321;48.814;9.132;2023-07-20T23:28:20;19.10;79.50
678;DHT22;321;48.814;9.132;2023-07-20T23:30:48;19.20;79.80
678;DHT22;321;48.814;9.132;2023-07-20T23:33:18;19.20;79.30
678;DHT22;321;48.814;9.132;2023-07-20T23:35:44;19.20;79.70
678;DHT22;321;48.814;9.132;2023-07-20T23:38:10;19.20;81.20
678;DHT22;321;48.814;9.132;2023-07-20T23:40:36;19.10;80.20
678;DHT22;321;48.814;9.132;2023-07-20T23:43:02;19.10;82.10
678;DHT22;321;48.814;9.132;2023-07-20T23:45:27;19.10;83.20
678;DHT22;321;48.814;9.132;2023-07-20T23:47:54;19.10;82.20
678;DHT22;321;48.814;9.132;2023-07-20T23:50:20;19.10;82.40
678;DHT22;321;48.814;9.132;2023-07-20T23:52:46;19.10;82.10
678;DHT22;321;48.814;9.132;2023-07-20T23:55:11;19.00;82.40
678;DHT22;321;48.814;9.132;2023-07-20T23:57:37;19.10;82.50
